Time;durP1;ratioP1;P1;durP2;ratioP2;P2;SDS_P1;SDS_P2;PMS_P1;PMS_P2;Temp;Humidity;BMP_temperature;BMP_pressure;BME280_temperature;BME280_humidity;BME280_pressure;Samples;Min_cycle;Max_cycle;Signal;HPM_P1;HPM_P2
2022/01/20 00:03:30;;;;;;;16.27;3.03;;;;;;;3.25;80.04;101507.63;5068700;28;20195;-72
2022/01/20 00:09:06;;;;;;;15.60;2.73;;;;;;;3.21;80.91;101504.03;5068375;28;20571;-73
2022/01/20 00:27:57;;;;;;;17.33;2.53;;;;;;;2.97;84.27;101509.28;5069350;28;20217;-71
2022/01/20 00:33:13;;;;;;;15.43;3.47;;;;;;;2.93;84.51;101509.88;5067339;28;20181;-72
2022/01/20 00:38:22;;;;;;;15.37;2.90;;;;;;;2.90;85.24;101504.66;5060161;28;20286;-72
2022/01/20 00:40:49;;;;;;;18.90;3.33;;;;;;;2.93;85.37;101499.78;5071915;28;20268;-72
2022/01/20 00:43:14;;;;;;;17.97;3.80;;;;;;;2.97;85.15;101502.59;5068833;28;20323;-72
2022/01/20 00:45:39;;;;;;;19.60;3.60;;;;;;;3.00;85.48;101482.56;5071742;28;20221;-72
2022/01/20 00:48:05;;;;;;;20.40;3.70;;;;;;;3.03;85.11;101494.50;5058762;28;20212;-72
2022/01/20 00:50:35;;;;;;;15.47;3.17;;;;;;;3.06;85.21;101498.09;5062667;28;20181;-72
2022/01/20 00:53:00;;;;;;;18.37;3.50;;;;;;;3.11;85.81;101498.34;5071527;28;20197;-72
2022/01/20 00:55:26;;;;;;;17.40;3.90;;;;;;;3.13;85.66;101485.00;5068040;28;20200;-71
2022/01/20 00:57:51;;;;;;;19.63;3.87;;;;;;;3.17;86.00;101484.41;5068859;28;20214;-72
2022/01/20 01:00:17;;;;;;;24.23;3.90;;;;;;;3.17;85.21;101486.06;5073958;28;20181;-72
2022/01/20 01:02:42;;;;;;;23.13;3.87;;;;;;;3.13;85.17;101495.13;5070846;28;20180;-73
2022/01/20 01:05:10;;;;;;;20.37;3.63;;;;;;;3.03;86.30;101490.31;5061292;28;20197;-72
2022/01/20 01:10:09;;;;;;;16.27;2.97;;;;;;;2.97;85.58;101478.94;5062584;28;20225;-73
2022/01/20 01:12:44;;;;;;;35.30;4.63;;;;;;;2.99;85.08;101477.41;5065035;28;20569;-72
2022/01/20 01:15:18;;;;;;;21.07;3.03;;;;;;;3.04;85.53;101481.06;5066969;28;20209;-72
2022/01/20 01:20:31;;;;;;;24.23;3.63;;;;;;;3.14;84.27;101478.28;5065670;28;20198;-72
2022/01/20 01:22:56;;;;;;;17.57;3.20;;;;;;;3.16;83.70;101471.66;5068874;28;20189;-72
2022/01/20 01:25:22;;;;;;;24.47;3.67;;;;;;;3.22;83.86;101472.03;5091018;28;20605;-74
2022/01/20 01:27:48;;;;;;;22.87;3.93;;;;;;;3.22;84.18;101466.97;5073583;28;20215;-71
2022/01/20 01:32:54;;;;;;;24.90;4.07;;;;;;;3.34;83.24;101470.19;5069470;28;20208;-72
2022/01/20 01:35:22;;;;;;;23.13;3.60;;;;;;;3.39;82.48;101477.28;5069350;28;20283;-72
2022/01/20 01:40:20;;;;;;;15.90;2.97;;;;;;;3.24;85.64;101490.69;5073523;28;20288;-71
2022/01/20 01:42:48;;;;;;;15.40;3.67;;;;;;;3.15;87.57;101496.09;5073909;28;20192;-71
2022/01/20 01:45:19;;;;;;;17.93;3.10;;;;;;;3.12;88.35;101503.50;5068995;28;20262;-71
2022/01/20 01:47:46;;;;;;;14.27;2.07;;;;;;;3.00;90.36;101497.72;5061154;28;20209;-72
2022/01/20 01:50:14;;;;;;;16.27;3.10;;;;;;;2.84;91.04;101504.28;5063112;28;20170;-72
2022/01/20 01:52:40;;;;;;;12.90;2.77;;;;;;;2.62;91.08;101509.69;5064404;28;20216;-72
2022/01/20 01:55:06;;;;;;;15.97;3.23;;;;;;;2.51;91.49;101493.00;5070308;28;20181;-70
2022/01/20 01:57:34;;;;;;;18.23;3.17;;;;;;;2.48;92.19;101495.34;5051676;28;20205;-71
2022/01/20 02:00:00;;;;;;;14.50;2.67;;;;;;;2.46;93.12;101504.50;5068888;28;20197;-73
2022/01/20 02:02:43;;;;;;;11.97;2.40;;;;;;;2.49;92.81;101488.66;5070573;28;20180;-72
2022/01/20 02:05:16;;;;;;;11.20;2.40;;;;;;;2.53;92.97;101483.84;5079671;28;20185;-72
2022/01/20 02:18:48;;;;;;;14.33;2.37;;;;;;;2.66;93.68;101500.66;5053501;28;20209;-72
2022/01/20 02:21:44;;;;;;;11.67;2.67;;;;;;;2.72;93.37;101504.41;5058746;28;20187;-73
2022/01/20 02:24:09;;;;;;;9.63;2.03;;;;;;;2.75;92.85;101486.06;5064035;28;20212;-73
2022/01/20 02:26:35;;;;;;;10.13;2.17;;;;;;;2.77;93.54;101499.66;5067568;28;20243;-71
2022/01/20 02:29:00;;;;;;;11.27;2.23;;;;;;;2.78;93.43;101483.69;5061338;28;20211;-72
2022/01/20 02:31:25;;;;;;;9.53;2.00;;;;;;;2.87;91.38;101510.41;5060641;28;20205;-71
2022/01/20 02:33:51;;;;;;;12.00;1.90;;;;;;;2.87;91.55;101512.94;5061585;28;20187;-72
2022/01/20 02:36:18;;;;;;;11.43;2.10;;;;;;;2.88;91.44;101524.81;5065874;28;20189;-72
2022/01/20 02:38:51;;;;;;;9.57;2.20;;;;;;;2.85;91.45;101496.78;5069402;28;20197;-74
2022/01/20 02:46:44;;;;;;;10.73;2.67;;;;;;;2.87;88.86;101505.34;5052656;28;20196;-72
2022/01/20 02:49:15;;;;;;;14.33;2.50;;;;;;;2.85;88.11;101499.31;5059883;28;20240;-71
2022/01/20 02:51:46;;;;;;;8.43;2.10;;;;;;;2.81;88.98;101497.38;5067729;28;20267;-71
2022/01/20 02:54:12;;;;;;;12.17;2.63;;;;;;;2.76;88.75;101482.75;5063162;28;20182;-71
2022/01/20 02:56:37;;;;;;;13.40;3.03;;;;;;;2.67;89.49;101493.16;5061946;28;20543;-74
2022/01/20 02:59:02;;;;;;;13.77;2.77;;;;;;;2.56;89.05;101499.22;5064236;28;20209;-70
2022/01/20 03:01:28;;;;;;;16.83;3.33;;;;;;;2.52;89.73;101504.84;5060014;28;20189;-72
2022/01/20 03:03:53;;;;;;;11.20;2.27;;;;;;;2.49;89.01;101488.66;5065660;28;20197;-73
2022/01/20 03:06:20;;;;;;;9.50;2.47;;;;;;;2.48;89.08;101491.97;5062057;28;20182;-74
2022/01/20 03:08:45;;;;;;;13.83;2.60;;;;;;;2.48;88.94;101492.81;5067524;28;20282;-71
2022/01/20 03:11:11;;;;;;;12.40;2.43;;;;;;;2.47;89.29;101495.25;5061187;28;20205;-71
2022/01/20 03:13:36;;;;;;;11.93;2.67;;;;;;;2.44;89.00;101492.53;5064247;28;20268;-74
2022/01/20 03:16:02;;;;;;;13.90;3.33;;;;;;;2.43;89.42;101494.19;5066351;28;20903;-72
2022/01/20 03:18:27;;;;;;;18.63;2.93;;;;;;;2.40;89.99;101494.03;5068794;28;20699;-74
2022/01/20 03:20:52;;;;;;;13.67;2.93;;;;;;;2.38;89.43;101507.31;5070573;28;20219;-71
2022/01/20 03:23:18;;;;;;;18.50;2.57;;;;;;;2.40;89.50;101503.22;5069181;28;20200;-71
2022/01/20 03:25:44;;;;;;;21.90;3.20;;;;;;;2.37;88.94;101508.09;5069084;28;20208;-73
2022/01/20 03:28:09;;;;;;;16.17;3.47;;;;;;;2.32;88.76;101514.50;5068844;28;20602;-72
2022/01/20 03:30:35;;;;;;;15.73;3.33;;;;;;;2.31;89.06;101531.34;5070292;28;20246;-74
2022/01/20 03:33:00;;;;;;;18.67;3.27;;;;;;;2.28;88.53;101527.72;5068837;28;20193;-71
2022/01/20 03:35:26;;;;;;;20.03;3.63;;;;;;;2.21;88.12;101515.50;5068998;28;20185;-71
2022/01/20 03:38:14;;;;;;;17.53;3.33;;;;;;;2.20;87.46;101539.03;5069836;28;20304;-72
2022/01/20 03:40:40;;;;;;;17.67;4.20;;;;;;;2.23;86.59;101529.09;5068811;28;20268;-71
2022/01/20 03:43:05;;;;;;;15.23;2.87;;;;;;;2.28;84.72;101532.78;5068807;28;20193;-72
2022/01/20 03:45:30;;;;;;;14.37;3.43;;;;;;;2.22;84.71;101545.03;5068927;28;20650;-72
2022/01/20 03:48:05;;;;;;;19.43;3.00;;;;;;;2.28;81.18;101543.75;5068461;28;20228;-72
2022/01/20 03:53:15;;;;;;;18.63;3.37;;;;;;;2.18;81.03;101543.97;5070207;28;20250;-71
2022/01/20 03:55:42;;;;;;;19.07;2.87;;;;;;;2.23;79.81;101550.19;5069075;28;20273;-70
2022/01/20 03:58:10;;;;;;;14.57;2.67;;;;;;;2.24;79.99;101556.09;5068674;28;20205;-71
2022/01/20 04:00:40;;;;;;;14.47;3.27;;;;;;;2.24;81.01;101554.44;5069258;28;20185;-71
2022/01/20 04:03:18;;;;;;;14.07;2.90;;;;;;;2.28;80.86;101560.56;5068516;28;20206;-71
2022/01/20 04:08:31;;;;;;;11.63;2.63;;;;;;;2.25;80.36;101585.66;5060963;28;20714;-71
2022/01/20 04:10:57;;;;;;;14.93;2.43;;;;;;;2.24;79.65;101577.19;5055871;28;20185;-74
2022/01/20 04:13:22;;;;;;;13.87;2.70;;;;;;;2.22;78.33;101585.44;5068085;28;20669;-74
2022/01/20 04:15:49;;;;;;;12.87;2.40;;;;;;;2.20;77.93;101590.38;5068400;28;20185;-75
2022/01/20 04:18:21;;;;;;;10.10;2.53;;;;;;;2.22;76.73;101586.31;5068126;28;20780;-73
2022/01/20 04:20:46;;;;;;;11.93;2.07;;;;;;;2.22;76.69;101587.97;5068660;28;20303;-71
2022/01/20 04:23:13;;;;;;;12.10;2.40;;;;;;;2.21;77.57;101589.59;5068457;28;20202;-73
2022/01/20 04:25:38;;;;;;;13.90;2.50;;;;;;;2.16;78.09;101578.34;5068341;28;20197;-74
2022/01/20 04:28:03;;;;;;;14.67;2.37;;;;;;;2.11;77.66;101574.63;5051175;28;20204;-73
2022/01/20 04:30:29;;;;;;;15.20;3.20;;;;;;;2.09;77.62;101593.00;5068217;28;20234;-74
2022/01/20 04:32:55;;;;;;;11.00;2.60;;;;;;;2.12;77.18;101603.31;5069470;28;20301;-73
2022/01/20 04:35:21;;;;;;;13.83;2.10;;;;;;;2.13;76.94;101611.00;5068198;28;20685;-74
2022/01/20 04:37:48;;;;;;;9.10;2.30;;;;;;;2.13;76.84;101620.22;5068053;28;20823;-73
2022/01/20 04:40:14;;;;;;;8.47;1.67;;;;;;;2.05;77.44;101629.81;5068024;28;20189;-73
2022/01/20 04:42:42;;;;;;;10.83;2.70;;;;;;;2.03;77.34;101623.81;5068170;28;20196;-73
2022/01/20 04:45:12;;;;;;;12.60;2.10;;;;;;;1.96;77.50;101629.22;5068098;28;20271;-73
2022/01/20 04:48:01;;;;;;;12.10;2.17;;;;;;;1.94;77.90;101609.69;5069291;28;20248;-74
2022/01/20 04:58:36;;;;;;;8.70;2.13;;;;;;;1.84;77.41;101642.69;5049114;28;20209;-73
2022/01/20 05:01:03;;;;;;;10.67;3.20;;;;;;;1.81;78.76;101662.66;5047888;28;20243;-74
2022/01/20 05:03:31;;;;;;;11.53;2.60;;;;;;;1.74;77.69;101640.31;5049176;28;20192;-75
2022/01/20 05:06:03;;;;;;;14.10;2.33;;;;;;;1.71;78.52;101666.22;5048081;28;20190;-73
2022/01/20 05:08:31;;;;;;;15.33;2.40;;;;;;;1.71;78.80;101667.88;5060932;28;20201;-71
2022/01/20 05:11:01;;;;;;;10.03;2.10;;;;;;;1.66;78.90;101664.16;5047961;28;20186;-73
2022/01/20 05:13:38;;;;;;;13.87;2.10;;;;;;;1.63;78.73;101663.94;5047025;28;20684;-74
2022/01/20 05:16:03;;;;;;;12.43;2.40;;;;;;;1.59;78.74;101674.59;5067956;28;20690;-73
2022/01/20 05:18:29;;;;;;;8.90;2.03;;;;;;;1.58;79.11;101677.91;5067487;28;20204;-73
2022/01/20 05:20:55;;;;;;;13.07;2.17;;;;;;;1.52;79.33;101690.97;5067926;28;20720;-73
2022/01/20 05:23:21;;;;;;;10.47;2.63;;;;;;;1.61;78.63;101690.75;5071256;28;20208;-74
2022/01/20 05:25:46;;;;;;;13.30;2.37;;;;;;;1.58;78.81;101686.34;5071487;28;20260;-73
2022/01/20 05:28:13;;;;;;;13.37;2.40;;;;;;;1.53;80.07;101695.25;5071434;28;20223;-74
2022/01/20 05:30:40;;;;;;;17.33;2.87;;;;;;;1.59;78.14;101694.78;5071405;28;20535;-73
2022/01/20 05:33:28;;;;;;;11.47;2.63;;;;;;;1.63;77.81;101704.31;5071341;28;20404;-74
2022/01/20 05:35:54;;;;;;;12.20;2.20;;;;;;;1.66;77.06;101712.09;5071374;28;20192;-74
2022/01/20 05:38:19;;;;;;;14.23;2.57;;;;;;;1.67;77.27;101709.69;5070888;28;20205;-74
2022/01/20 05:40:47;;;;;;;9.53;2.87;;;;;;;1.64;76.50;101716.16;5071111;28;20220;-73
2022/01/20 05:43:13;;;;;;;14.53;2.70;;;;;;;1.60;77.63;101716.75;5071208;28;20223;-76
2022/01/20 05:45:40;;;;;;;13.30;2.33;;;;;;;1.62;76.80;101720.22;5088273;28;20576;-74
2022/01/20 05:48:13;;;;;;;10.67;2.33;;;;;;;1.58;76.34;101715.75;5070775;28;20219;-73
2022/01/20 05:50:57;;;;;;;14.03;3.30;;;;;;;1.57;76.37;101729.13;5072544;28;20291;-73
2022/01/20 05:53:23;;;;;;;17.43;2.70;;;;;;;1.60;75.78;101726.84;5054317;28;20706;-74
2022/01/20 05:55:49;;;;;;;18.90;2.90;;;;;;;1.57;76.19;101721.56;5070913;28;20196;-74
2022/01/20 05:58:14;;;;;;;16.03;3.03;;;;;;;1.56;75.97;101725.72;5070670;28;20212;-72
2022/01/20 06:00:40;;;;;;;17.07;2.97;;;;;;;1.53;76.33;101729.69;5071022;28;20193;-73
2022/01/20 06:05:50;;;;;;;17.83;2.70;;;;;;;1.64;74.01;101716.16;5087513;28;20223;-73
2022/01/20 06:08:16;;;;;;;19.50;3.33;;;;;;;1.64;74.30;101708.59;5054266;28;20225;-74
2022/01/20 06:10:41;;;;;;;16.37;2.90;;;;;;;1.62;74.85;101707.63;5059394;28;20216;-74
2022/01/20 06:13:12;;;;;;;12.87;2.80;;;;;;;1.64;73.78;101714.53;5070076;28;20185;-74
2022/01/20 06:15:38;;;;;;;14.00;2.90;;;;;;;1.59;75.24;101713.34;5057858;28;20262;-73
2022/01/20 06:18:04;;;;;;;15.17;2.60;;;;;;;1.66;73.29;101715.47;5070158;28;20291;-73
2022/01/20 06:20:31;;;;;;;12.23;2.87;;;;;;;1.66;74.53;101727.25;5061529;28;20280;-73
2022/01/20 06:22:57;;;;;;;17.70;3.90;;;;;;;1.66;73.62;101729.78;5064844;28;20197;-73
2022/01/20 06:25:23;;;;;;;16.10;3.00;;;;;;;1.61;74.36;101748.78;5051823;28;20181;-75
2022/01/20 06:27:49;;;;;;;13.67;3.37;;;;;;;1.67;73.69;101742.50;5063223;28;20308;-74
2022/01/20 06:30:15;;;;;;;19.43;3.33;;;;;;;1.63;74.24;101745.59;5064468;28;20185;-73
2022/01/20 06:32:41;;;;;;;18.00;3.43;;;;;;;1.66;73.75;101755.00;5041370;28;20340;-74
2022/01/20 06:35:11;;;;;;;18.77;4.37;;;;;;;1.63;73.34;101757.31;5051617;28;20264;-72
2022/01/20 06:37:36;;;;;;;14.53;2.70;;;;;;;1.58;74.72;101762.06;5055603;28;20208;-72
2022/01/20 06:40:04;;;;;;;12.60;3.10;;;;;;;1.63;73.01;101760.72;5066089;28;20185;-73
2022/01/20 06:42:29;;;;;;;13.80;2.93;;;;;;;1.63;73.84;101775.88;5058605;28;20182;-73
2022/01/20 06:44:55;;;;;;;21.63;3.60;;;;;;;1.64;74.15;101774.19;5070168;28;20657;-72
2022/01/20 06:47:21;;;;;;;16.97;3.23;;;;;;;1.64;74.40;101780.13;5069797;28;20300;-73
2022/01/20 06:49:46;;;;;;;20.40;3.90;;;;;;;1.60;75.45;101782.34;5069303;28;20181;-74
2022/01/20 06:52:12;;;;;;;15.17;3.03;;;;;;;1.58;75.28;101792.34;5060740;28;20683;-73
2022/01/20 06:54:37;;;;;;;12.67;3.93;;;;;;;1.60;75.54;101788.25;5058881;28;20189;-74
2022/01/20 06:57:04;;;;;;;18.60;3.73;;;;;;;1.63;73.86;101775.88;5049971;28;20186;-74
2022/01/20 06:59:30;;;;;;;18.50;3.43;;;;;;;1.68;74.17;101796.34;5061734;28;20192;-72
2022/01/20 07:01:56;;;;;;;18.63;3.80;;;;;;;1.66;74.18;101797.91;5069574;28;20177;-72
2022/01/20 07:04:27;;;;;;;20.23;3.27;;;;;;;1.62;74.39;101800.97;5052002;28;20216;-72
2022/01/20 07:06:53;;;;;;;21.17;3.50;;;;;;;1.65;74.01;101804.59;5064798;28;20181;-74
2022/01/20 07:09:39;;;;;;;13.37;3.70;;;;;;;1.66;74.31;101806.34;5055195;28;20572;-74
2022/01/20 07:12:13;;;;;;;17.43;3.80;;;;;;;1.71;73.66;101811.72;5062183;28;20212;-73
2022/01/20 07:14:39;;;;;;;20.07;3.80;;;;;;;1.69;73.25;101816.66;5069211;28;20284;-73
2022/01/20 07:17:05;;;;;;;16.67;3.43;;;;;;;1.78;71.83;101804.69;5069301;28;20189;-74
2022/01/20 07:19:31;;;;;;;18.83;3.50;;;;;;;1.74;72.79;101812.81;5067145;28;20197;-74
2022/01/20 07:22:04;;;;;;;17.57;3.63;;;;;;;1.71;73.22;101815.13;5069265;28;20189;-74
2022/01/20 07:24:30;;;;;;;18.13;3.17;;;;;;;1.77;72.89;101818.06;5068531;28;20193;-73
2022/01/20 07:27:02;;;;;;;16.23;3.43;;;;;;;1.80;73.07;101824.97;5061809;28;20192;-75
2022/01/20 07:29:28;;;;;;;17.33;3.40;;;;;;;1.78;73.81;101831.56;5065521;28;20240;-74
2022/01/20 07:31:54;;;;;;;25.87;3.40;;;;;;;1.79;73.63;101834.19;5068962;28;20713;-73
2022/01/20 07:34:20;;;;;;;29.70;3.60;;;;;;;1.84;73.13;101834.53;5067918;28;20271;-73
2022/01/20 07:36:46;;;;;;;16.20;3.40;;;;;;;1.81;73.00;101840.25;5066027;28;20612;-74
2022/01/20 07:39:11;;;;;;;20.30;3.67;;;;;;;1.81;73.88;101842.75;5063581;28;20605;-74
2022/01/20 07:41:36;;;;;;;18.90;3.50;;;;;;;1.82;73.98;101848.66;5058326;28;20662;-73
2022/01/20 07:44:17;;;;;;;16.27;3.70;;;;;;;1.84;73.62;101849.69;5067298;28;20185;-72
2022/01/20 07:47:12;;;;;;;16.77;3.73;;;;;;;1.95;72.04;101853.81;5049189;28;20185;-73
2022/01/20 07:49:37;;;;;;;13.50;2.90;;;;;;;1.93;72.07;101855.38;5051360;28;20590;-72
2022/01/20 07:52:03;;;;;;;14.87;3.03;;;;;;;1.93;72.22;101858.75;5054772;28;20561;-72
2022/01/20 07:54:28;;;;;;;19.33;2.87;;;;;;;1.95;72.30;101862.28;5063012;28;20577;-73
2022/01/20 07:56:53;;;;;;;20.77;3.60;;;;;;;2.00;71.33;101866.00;5078120;28;20199;-73
2022/01/20 07:59:19;;;;;;;14.80;3.60;;;;;;;2.05;71.72;101856.19;5063828;28;20217;-72
2022/01/20 08:01:45;;;;;;;20.53;3.90;;;;;;;2.13;71.88;101862.66;5063120;28;20178;-71
2022/01/20 08:04:11;;;;;;;16.57;3.13;;;;;;;2.19;70.48;101865.59;5068491;28;20205;-72
2022/01/20 08:06:37;;;;;;;15.53;3.43;;;;;;;2.33;70.41;101863.25;5079601;28;20270;-71
2022/01/20 08:09:09;;;;;;;19.23;3.70;;;;;;;2.27;70.57;101869.53;5068958;28;20644;-73
2022/01/20 08:11:57;;;;;;;17.40;3.53;;;;;;;2.27;71.48;101867.91;5058122;28;20222;-71
2022/01/20 08:14:41;;;;;;;17.67;3.57;;;;;;;2.34;71.31;101870.03;5049845;28;20816;-72
2022/01/20 08:17:09;;;;;;;19.13;3.60;;;;;;;2.43;70.08;101880.78;5056174;28;20193;-72
2022/01/20 08:19:38;;;;;;;15.63;3.37;;;;;;;2.43;69.85;101875.72;5068011;28;20284;-72
2022/01/20 08:22:04;;;;;;;16.27;3.00;;;;;;;2.48;70.93;101868.47;5068282;28;20326;-72
2022/01/20 08:24:30;;;;;;;18.63;3.03;;;;;;;2.61;70.22;101879.50;5068303;28;20185;-74
2022/01/20 08:26:55;;;;;;;19.83;3.77;;;;;;;2.79;70.42;101863.03;5068164;28;20181;-72
2022/01/20 08:29:21;;;;;;;16.53;3.30;;;;;;;2.85;69.06;101872.69;5067957;28;20197;-72
2022/01/20 08:31:46;;;;;;;16.43;3.30;;;;;;;2.75;69.37;101866.13;5068008;28;20617;-72
2022/01/20 08:34:34;;;;;;;18.23;3.80;;;;;;;2.67;69.55;101877.38;5068309;28;20184;-71
2022/01/20 08:37:22;;;;;;;18.97;3.37;;;;;;;2.52;69.17;101866.25;5060929;28;20567;-72
2022/01/20 08:39:48;;;;;;;15.07;3.47;;;;;;;2.46;69.56;101870.88;5068105;28;20275;-71
2022/01/20 08:42:13;;;;;;;14.63;3.50;;;;;;;2.39;70.24;101873.75;5068174;28;20650;-73
2022/01/20 08:44:39;;;;;;;11.70;3.30;;;;;;;2.40;69.97;101873.00;5068125;28;20682;-71
2022/01/20 08:47:16;;;;;;;17.73;3.70;;;;;;;2.51;69.92;101876.25;5068017;28;20200;-72
2022/01/20 08:49:43;;;;;;;16.53;3.10;;;;;;;2.63;69.38;101870.38;5068104;28;20564;-74
2022/01/20 08:52:09;;;;;;;16.90;3.07;;;;;;;2.73;69.70;101866.81;5067995;28;20303;-71
2022/01/20 08:54:43;;;;;;;16.57;3.13;;;;;;;2.78;68.96;101871.41;5068076;28;20193;-72
2022/01/20 08:57:15;;;;;;;13.93;2.17;;;;;;;2.83;69.59;101872.56;5065206;28;20263;-71
2022/01/20 08:59:42;;;;;;;12.93;2.20;;;;;;;2.86;68.44;101867.72;5053249;28;20718;-72
2022/01/20 09:02:08;;;;;;;10.20;2.43;;;;;;;2.91;68.80;101873.06;5052023;28;20174;-71
2022/01/20 09:04:34;;;;;;;13.83;3.00;;;;;;;2.97;69.12;101864.25;5053445;28;20655;-72
2022/01/20 09:07:27;;;;;;;18.33;2.90;;;;;;;3.04;68.49;101861.31;5052227;28;20209;-72
2022/01/20 09:09:55;;;;;;;13.13;2.47;;;;;;;3.16;68.67;101867.19;5053996;28;20761;-73
2022/01/20 09:17:51;;;;;;;13.23;3.27;;;;;;;3.83;66.13;101862.22;5071432;28;20201;-73
2022/01/20 09:20:16;;;;;;;12.97;2.63;;;;;;;3.91;65.48;101859.38;5071401;28;20578;-72
2022/01/20 09:22:41;;;;;;;18.07;3.67;;;;;;;3.92;65.62;101870.41;5071415;28;20224;-74
2022/01/20 09:25:08;;;;;;;17.47;2.90;;;;;;;3.89;65.63;101872.72;5071392;28;20192;-72
2022/01/20 09:27:36;;;;;;;22.80;4.53;;;;;;;3.89;66.56;101885.41;5071199;28;20205;-71
2022/01/20 09:30:04;;;;;;;18.43;3.00;;;;;;;3.97;65.60;101885.09;5071136;28;20181;-74
2022/01/20 09:32:37;;;;;;;20.33;4.27;;;;;;;4.17;65.55;101887.19;5071365;28;20938;-73
2022/01/20 09:35:03;;;;;;;11.07;3.43;;;;;;;4.22;65.17;101887.47;5071337;28;20327;-72
2022/01/20 09:37:28;;;;;;;18.07;3.43;;;;;;;4.74;63.23;101880.53;5071574;28;20300;-72
2022/01/20 09:39:55;;;;;;;9.90;2.87;;;;;;;5.30;61.93;101879.63;5071124;28;20666;-72
2022/01/20 09:42:34;;;;;;;13.23;2.77;;;;;;;5.53;60.70;101888.53;5071124;28;20176;-74
2022/01/20 09:45:00;;;;;;;14.73;2.93;;;;;;;5.84;59.91;101880.19;5067605;28;20556;-72
2022/01/20 09:47:26;;;;;;;14.47;2.83;;;;;;;6.23;59.71;101882.34;5072502;28;20204;-74
2022/01/20 09:50:25;;;;;;;9.37;2.77;;;;;;;5.94;58.88;101899.38;5075430;28;20189;-70
2022/01/20 09:53:14;;;;;;;10.13;2.30;;;;;;;5.54;60.84;101900.44;5070928;28;20572;-72
2022/01/20 09:55:50;;;;;;;12.43;2.63;;;;;;;4.98;61.33;101893.81;5055416;28;20197;-72
2022/01/20 09:58:16;;;;;;;6.23;1.83;;;;;;;4.49;61.54;101901.81;5050482;28;20234;-74
2022/01/20 10:00:43;;;;;;;8.53;1.83;;;;;;;4.37;62.39;101898.56;5050805;28;20960;-72
2022/01/20 10:03:15;;;;;;;11.10;2.27;;;;;;;4.22;63.32;101902.66;5081552;28;20185;-72
2022/01/20 10:05:52;;;;;;;11.07;1.77;;;;;;;4.09;63.78;101913.72;5070904;28;20205;-74
2022/01/20 10:08:26;;;;;;;8.60;1.70;;;;;;;4.31;63.91;101903.22;5069721;28;20611;-72
2022/01/20 10:11:10;;;;;;;11.23;2.27;;;;;;;4.46;63.83;101911.78;5072152;28;20196;-72
2022/01/20 10:13:59;;;;;;;8.17;1.80;;;;;;;4.07;64.97;101917.81;5070495;28;20275;-74
2022/01/20 10:17:00;;;;;;;7.73;1.60;;;;;;;3.90;65.55;101910.81;5044863;28;20200;-72
2022/01/20 10:19:30;;;;;;;9.47;2.00;;;;;;;3.87;66.18;101922.44;5070163;28;20640;-71
2022/01/20 10:22:14;;;;;;;6.90;2.33;;;;;;;4.05;67.13;101926.13;5070350;28;20185;-72
2022/01/20 10:25:09;;;;;;;9.67;2.50;;;;;;;3.96;67.90;101928.06;5071041;28;20180;-72
2022/01/20 10:27:57;;;;;;;11.67;2.77;;;;;;;3.96;68.06;101923.88;5070052;28;20224;-73
2022/01/20 10:30:26;;;;;;;11.27;3.13;;;;;;;4.13;67.94;101935.94;5070302;28;20181;-73
2022/01/20 10:32:56;;;;;;;12.70;2.60;;;;;;;4.47;68.31;101936.34;5066669;28;20375;-74
2022/01/20 10:35:33;;;;;;;7.93;2.03;;;;;;;5.44;64.45;101936.28;5050059;28;20190;-75
2022/01/20 10:38:10;;;;;;;11.77;2.70;;;;;;;4.37;66.19;101939.97;5049639;28;20335;-73
2022/01/20 10:40:50;;;;;;;11.90;2.57;;;;;;;3.89;68.62;101954.69;5050010;28;20177;-74
2022/01/20 10:43:24;;;;;;;12.77;2.53;;;;;;;3.53;70.21;101947.25;5049975;28;20186;-73
2022/01/20 10:46:12;;;;;;;9.90;2.33;;;;;;;3.32;72.58;101958.50;5066563;28;20200;-74
2022/01/20 10:48:38;;;;;;;5.93;1.60;;;;;;;3.13;67.14;101942.88;5050894;28;20212;-73
2022/01/20 10:51:23;;;;;;;7.50;1.83;;;;;;;3.29;68.11;101933.00;5066354;28;20217;-72
2022/01/20 10:54:00;;;;;;;11.63;1.90;;;;;;;3.94;68.68;101927.09;5049686;28;20224;-73
2022/01/20 10:56:28;;;;;;;9.93;1.80;;;;;;;3.80;68.13;101916.09;5033372;28;20185;-72
2022/01/20 10:58:53;;;;;;;6.87;2.17;;;;;;;3.72;66.14;101924.00;5032839;28;20200;-73
2022/01/20 11:01:19;;;;;;;8.40;1.20;;;;;;;3.66;64.95;101926.13;5049573;28;20216;-73
2022/01/20 11:03:45;;;;;;;5.67;0.80;;;;;;;3.53;65.78;101944.72;5049553;28;20213;-73
2022/01/20 11:06:15;;;;;;;4.30;1.00;;;;;;;4.96;60.18;101933.41;5049862;28;20201;-72
2022/01/20 11:08:44;;;;;;;5.23;1.23;;;;;;;5.84;58.09;101935.22;5049205;28;20705;-73
2022/01/20 11:11:15;;;;;;;5.47;1.63;;;;;;;6.30;58.15;101935.25;5033348;28;20831;-72
2022/01/20 11:13:47;;;;;;;3.13;1.27;;;;;;;6.58;56.77;101920.66;5049486;28;20197;-75
2022/01/20 11:16:12;;;;;;;6.37;1.67;;;;;;;7.25;57.17;101927.53;5049533;28;20177;-73
2022/01/20 11:18:42;;;;;;;3.80;1.00;;;;;;;6.34;58.34;101928.66;5049131;28;20255;-71
2022/01/20 11:21:08;;;;;;;4.13;1.00;;;;;;;7.33;57.14;101922.00;5056401;28;20199;-70
2022/01/20 11:23:40;;;;;;;4.97;1.10;;;;;;;8.30;54.38;101913.13;5052796;28;20658;-74
2022/01/20 11:26:56;;;;;;;4.27;1.20;;;;;;;9.36;50.16;101896.53;5054748;28;20193;-71
2022/01/20 11:29:50;;;;;;;4.27;1.30;;;;;;;7.74;54.41;101903.66;5049238;28;20553;-70
2022/01/20 11:32:42;;;;;;;8.07;1.60;;;;;;;9.08;53.00;101885.13;5049204;28;20585;-70
2022/01/20 11:35:19;;;;;;;8.23;1.57;;;;;;;9.83;49.58;101883.97;5033919;28;20185;-71
2022/01/20 11:37:56;;;;;;;8.37;1.97;;;;;;;10.26;49.66;101884.81;5049395;28;20214;-72
2022/01/20 11:40:23;;;;;;;6.70;1.80;;;;;;;10.84;49.49;101880.09;5048577;28;20390;-71
2022/01/20 11:42:59;;;;;;;5.57;1.90;;;;;;;10.53;49.77;101872.13;5049944;28;20269;-70
2022/01/20 11:45:28;;;;;;;8.20;2.20;;;;;;;10.50;49.21;101872.91;5070053;28;20176;-73
2022/01/20 11:47:54;;;;;;;9.80;2.70;;;;;;;10.88;47.92;101854.63;5068645;28;20209;-71
2022/01/20 11:50:20;;;;;;;6.80;2.27;;;;;;;10.62;47.63;101867.34;5070404;28;20569;-72
2022/01/20 11:52:45;;;;;;;9.07;2.53;;;;;;;10.23;45.86;101863.34;5068452;28;20209;-71
2022/01/20 11:55:14;;;;;;;8.67;3.07;;;;;;;9.88;47.73;101872.22;5055790;28;20190;-72
2022/01/20 11:57:39;;;;;;;10.23;2.67;;;;;;;9.06;47.15;101863.72;5049868;28;20262;-72
2022/01/20 12:00:19;;;;;;;8.20;2.23;;;;;;;8.72;47.12;101884.44;5054033;28;20193;-71
2022/01/20 12:02:44;;;;;;;7.20;2.20;;;;;;;7.68;49.83;101891.47;5069822;28;20248;-71
2022/01/20 12:05:28;;;;;;;10.13;2.70;;;;;;;7.12;51.29;101900.59;5068524;28;20638;-74
2022/01/20 12:08:20;;;;;;;12.23;2.40;;;;;;;6.41;52.62;101897.69;5067136;28;20220;-73
2022/01/20 12:11:12;;;;;;;13.27;2.43;;;;;;;5.86;54.19;101908.22;5068453;28;20192;-73
2022/01/20 12:13:48;;;;;;;17.17;2.50;;;;;;;5.57;55.29;101910.78;5067702;28;20543;-74
2022/01/20 12:16:24;;;;;;;7.37;1.60;;;;;;;5.92;50.62;101894.19;5069756;28;20524;-73
2022/01/20 12:18:50;;;;;;;7.70;1.90;;;;;;;5.84;52.49;101902.19;5069307;28;20243;-74
2022/01/20 12:21:16;;;;;;;14.77;2.40;;;;;;;5.71;53.58;101908.22;5070070;28;20540;-73
2022/01/20 12:23:43;;;;;;;9.67;1.97;;;;;;;5.59;52.06;101897.38;5069618;28;20204;-73
2022/01/20 12:26:08;;;;;;;8.20;2.00;;;;;;;5.34;51.27;101893.38;5069679;28;20242;-74
2022/01/20 12:28:33;;;;;;;8.20;1.90;;;;;;;5.07;53.01;101902.81;5084966;28;20200;-74
2022/01/20 12:31:02;;;;;;;12.07;1.90;;;;;;;4.72;55.82;101909.13;5067824;28;20196;-73
2022/01/20 12:33:30;;;;;;;8.00;2.13;;;;;;;4.67;58.31;101911.41;5069577;28;20267;-73
2022/01/20 12:36:01;;;;;;;12.07;2.13;;;;;;;4.82;58.04;101904.72;5069629;28;20204;-73
2022/01/20 12:38:33;;;;;;;8.67;1.77;;;;;;;5.04;57.52;101900.09;5069284;28;20212;-75
2022/01/20 12:41:09;;;;;;;11.57;2.40;;;;;;;6.08;55.91;101880.66;5069465;28;20173;-73
2022/01/20 12:43:40;;;;;;;5.63;1.80;;;;;;;5.09;55.86;101873.34;5069701;28;20215;-73
2022/01/20 12:46:07;;;;;;;9.03;2.50;;;;;;;5.01;56.54;101881.31;5068292;28;20217;-73
2022/01/20 12:48:33;;;;;;;9.80;2.20;;;;;;;4.94;56.60;101877.53;5065341;28;20221;-73
2022/01/20 12:51:07;;;;;;;10.77;2.30;;;;;;;6.76;52.39;101873.25;5053907;28;20200;-73
2022/01/20 12:53:36;;;;;;;7.47;1.83;;;;;;;5.92;53.71;101861.16;5069285;28;20195;-75
2022/01/20 12:56:03;;;;;;;8.27;2.30;;;;;;;5.53;54.88;101879.25;5069596;28;20186;-73